Aérodrome :
LOGIN :

S'inscrire | Disclaimer

   EN    FR    IT 

 










Légende :    VFR   VFR Marginal   IFR   IFR Intensif   IFR Très Intensif
Visi : 
Plafond : 
>= 8 km
>= 3000ft
5 à 8 km
1000 à 3000 ft
1500m à 5 km
500 à 1000 ft
800 à 1500m
200 à 500 ft
< 800m
< 200 ft
Symboles :   Orages  Brouillard  Fortes neiges  Fortes précipitations  Vent > 20 kt
SIGMETs :   Divers  Orages  Givrage  Turbulence  Onde Orograph.  Cendres Volcan.







- Altitude de l'aérodrome : 2026 ft
- Code IATA : TOJ


LETO - Madrid Torrejon

DERNIER METAR :
  • 171800Z 33007KT 9999 SCT035 06/03 Q1018 NOSIG

METARs EXPIRÉS :
  • 171700Z 03002KT 9999 SCT065 08/03 Q1017 NOSIG
  • 171600Z 06006KT 9999 FEW045 SCT060 09/03 Q1017 NOSIG

TAF TAF LETO
Valide du 17 à 18h jusqu'au 18 à 18h UTC


171700Z 1718/1818 05007KT 9999 FEW045 TX08/1815Z TNM05/1806Z
BECMG 1810/1811 22008KT
Pas de NOTAMs connus pour ce terrain.
1 SIGMET publié pour la FIR Madrid (LECM) :
 
Turbulence forte
LECM SIGMET 3 VALID 171700/172100 LEVA
LECM MADRID FIR/UIR SEV TURB FCST WI N4238 W00005 - N4258 W00045 - N3736 W00725 - N3552 W00725 - N3825 W00124 - N4238 W00005 FL180/310 MOV E NC=



MET'MAP, la Météo Aéronautique d'un coup d'oeil ! - Copyright ORBIFLY Décembre 2007 - Disclaimer

ORBIFLY MET'MAP TEAM :

Programmation & Développement : Alexandra Zaïnal
Conception & Développement : Baudouin d'Aumeries
Co-Programmation & Développement : Marc-Olivier Méhu
Soutien technique & logistique : Manuel Goepfert

Contact : metmap@orbifly.com




SOURCES & CREDITS :

   NOAA